createdAt,value
2018-12-13T00:01:58.202Z,1.00
2018-12-13T00:04:26.466Z,1.00
2018-12-13T00:06:55.476Z,1.00
2018-12-13T00:09:23.693Z,1.00
2018-12-13T00:11:51.949Z,0.90
2018-12-13T00:14:20.168Z,0.90
2018-12-13T00:16:49.193Z,0.90
2018-12-13T00:19:17.443Z,0.90
2018-12-13T00:21:47.307Z,0.80
2018-12-13T00:24:15.579Z,0.80
2018-12-13T00:26:43.817Z,0.70
2018-12-13T00:29:12.793Z,0.70
2018-12-13T00:31:41.057Z,0.60
2018-12-13T00:34:09.238Z,0.60
2018-12-13T00:36:39.853Z,0.70
2018-12-13T00:39:05.750Z,0.70
2018-12-13T00:41:33.974Z,0.80
2018-12-13T00:44:02.225Z,0.80
2018-12-13T00:46:31.253Z,0.90
2018-12-13T00:48:59.516Z,0.90
2018-12-13T00:51:27.767Z,1.00
2018-12-13T00:53:56.025Z,1.10
2018-12-13T00:56:24.302Z,1.20
2018-12-13T00:58:52.506Z,1.20
2018-12-13T01:01:21.489Z,1.30
2018-12-13T01:03:49.737Z,1.30
2018-12-13T01:06:18.017Z,1.40
2018-12-13T01:08:46.264Z,1.40
2018-12-13T01:11:14.475Z,1.40
2018-12-13T01:13:42.681Z,1.40
2018-12-13T01:16:10.949Z,1.50
2018-12-13T01:18:39.199Z,1.50
2018-12-13T01:21:08.221Z,1.50
2018-12-13T01:23:36.469Z,1.50
2018-12-13T01:26:05.481Z,1.50
2018-12-13T01:28:33.717Z,1.50
2018-12-13T01:31:02.797Z,1.40
2018-12-13T01:33:31.043Z,1.40
2018-12-13T01:35:59.312Z,1.40
2018-12-13T01:38:27.543Z,1.50
2018-12-13T01:40:55.789Z,1.40
2018-12-13T01:43:24.041Z,1.40
2018-12-13T01:45:52.305Z,1.40
2018-12-13T01:48:20.555Z,1.50
2018-12-13T01:50:49.535Z,1.50
2018-12-13T01:53:17.761Z,1.50
2018-12-13T01:55:45.985Z,1.40
2018-12-13T01:58:14.191Z,1.50
2018-12-13T02:00:42.453Z,1.50
2018-12-13T02:03:11.435Z,1.30
2018-12-13T02:05:40.415Z,1.30
2018-12-13T02:08:08.641Z,1.30
2018-12-13T02:10:36.848Z,1.20
2018-12-13T02:13:05.112Z,1.20
2018-12-13T02:15:33.306Z,1.20
2018-12-13T02:18:01.580Z,1.20
2018-12-13T02:20:29.784Z,1.20
2018-12-13T02:22:58.056Z,1.10
2018-12-13T02:25:26.289Z,1.20
2018-12-13T02:27:54.550Z,1.10
2018-12-13T02:30:22.756Z,1.20
2018-12-13T02:32:51.022Z,1.10
2018-12-13T02:35:19.261Z,1.10
2018-12-13T02:37:48.294Z,1.10
2018-12-13T02:40:16.489Z,1.10
2018-12-13T02:42:44.710Z,1.10
2018-12-13T02:45:12.916Z,1.10
2018-12-13T02:47:41.135Z,1.20
2018-12-13T02:50:09.347Z,1.10
2018-12-13T02:52:37.576Z,1.10
2018-12-13T02:55:05.818Z,1.10
2018-12-13T02:57:34.084Z,1.10
2018-12-13T03:00:02.321Z,1.00
2018-12-13T03:02:30.543Z,1.10
2018-12-13T03:04:58.796Z,1.00
2018-12-13T03:07:27.796Z,0.90
2018-12-13T03:09:55.998Z,0.90
2018-12-13T03:12:24.220Z,0.90
2018-12-13T03:14:52.472Z,0.90
2018-12-13T03:17:20.738Z,1.00
2018-12-13T03:19:48.968Z,1.00
2018-12-13T03:22:17.969Z,1.00
2018-12-13T03:24:46.210Z,1.00
2018-12-13T03:27:14.458Z,1.10
2018-12-13T03:29:42.688Z,1.10
2018-12-13T03:32:11.664Z,1.10
2018-12-13T03:34:39.886Z,1.10
2018-12-13T03:37:08.101Z,1.10
2018-12-13T03:39:36.314Z,1.10
2018-12-13T03:42:04.661Z,1.10
2018-12-13T03:44:32.866Z,1.10
2018-12-13T03:47:01.884Z,1.00
2018-12-13T03:49:30.144Z,1.00
2018-12-13T03:51:59.157Z,1.00
2018-12-13T03:54:28.144Z,0.90
2018-12-13T03:56:57.135Z,0.80
2018-12-13T03:59:26.160Z,0.80
2018-12-13T04:01:54.413Z,0.80
2018-12-13T04:04:22.666Z,0.80
2018-12-13T04:06:51.649Z,0.80
2018-12-13T04:09:20.689Z,0.70
2018-12-13T04:11:48.899Z,0.70
2018-12-13T04:14:17.112Z,0.70
2018-12-13T04:16:45.359Z,0.60
2018-12-13T04:19:13.626Z,0.60
2018-12-13T04:21:41.820Z,0.60
2018-12-13T04:24:10.887Z,0.70
2018-12-13T04:26:39.080Z,0.70
2018-12-13T04:29:07.305Z,0.70
2018-12-13T04:31:35.512Z,0.60
2018-12-13T04:34:03.796Z,0.70
2018-12-13T04:36:31.999Z,0.70
2018-12-13T04:39:00.981Z,0.80
2018-12-13T04:41:29.190Z,0.70
2018-12-13T04:43:57.454Z,0.80
2018-12-13T04:46:26.473Z,0.90
2018-12-13T04:48:54.733Z,0.90
2018-12-13T04:51:23.734Z,0.90
2018-12-13T04:53:51.979Z,0.90
2018-12-13T04:56:20.197Z,1.00
2018-12-13T04:58:48.446Z,1.00
2018-12-13T05:01:17.468Z,1.00
2018-12-13T05:03:45.662Z,1.00
2018-12-13T05:06:13.920Z,1.00
2018-12-13T05:08:42.130Z,1.00
2018-12-13T05:11:10.402Z,0.90
2018-12-13T05:13:38.624Z,0.90
2018-12-13T05:16:06.827Z,0.80
2018-12-13T05:18:35.076Z,0.80
2018-12-13T05:21:04.098Z,0.80
2018-12-13T05:23:32.289Z,0.80
2018-12-13T05:26:00.541Z,0.80
2018-12-13T05:28:29.454Z,0.80
2018-12-13T05:30:57.714Z,0.80
2018-12-13T05:33:25.980Z,0.80
2018-12-13T05:35:54.940Z,0.70
2018-12-13T05:38:23.205Z,0.70
2018-12-13T05:40:51.449Z,0.80
2018-12-13T05:43:19.661Z,0.80
2018-12-13T05:45:47.970Z,0.70
2018-12-13T05:48:16.995Z,0.80
2018-12-13T05:50:45.253Z,0.70
2018-12-13T05:53:13.548Z,0.80
2018-12-13T05:55:41.740Z,0.80
2018-12-13T05:58:09.996Z,0.80
2018-12-13T06:00:38.210Z,0.80
2018-12-13T06:03:06.469Z,0.80
2018-12-13T06:05:34.695Z,0.80
2018-12-13T06:08:03.711Z,0.80
2018-12-13T06:10:32.728Z,0.80
2018-12-13T06:13:00.985Z,0.70
2018-12-13T06:15:29.235Z,0.70
2018-12-13T06:17:58.214Z,0.60
2018-12-13T06:20:26.416Z,0.60
2018-12-13T06:22:54.682Z,0.50
2018-12-13T06:25:22.898Z,0.50
2018-12-13T06:27:51.100Z,0.50
2018-12-13T06:30:19.332Z,0.50
2018-12-13T06:32:47.566Z,0.50
2018-12-13T06:35:15.814Z,0.50
2018-12-13T06:37:44.080Z,0.40
2018-12-13T06:40:15.561Z,0.50
2018-12-13T06:42:40.563Z,0.50
2018-12-13T06:45:08.772Z,0.50
2018-12-13T06:47:37.820Z,0.40
2018-12-13T06:50:06.100Z,0.50
2018-12-13T06:52:34.363Z,0.40
2018-12-13T06:55:02.582Z,0.40
2018-12-13T06:57:30.790Z,0.40
2018-12-13T07:00:02.046Z,0.50
2018-12-13T07:02:30.284Z,0.40
2018-12-13T07:04:58.544Z,0.50
2018-12-13T07:07:26.746Z,0.50
2018-12-13T07:09:55.746Z,0.50
2018-12-13T07:12:24.764Z,0.50
2018-12-13T07:14:53.052Z,0.50
2018-12-13T07:17:21.277Z,0.60
2018-12-13T07:19:49.484Z,0.70
2018-12-13T07:22:17.731Z,0.70
2018-12-13T07:24:45.934Z,0.70
2018-12-13T07:27:14.200Z,0.70
2018-12-13T07:29:43.152Z,0.70
2018-12-13T07:32:11.414Z,0.60
2018-12-13T07:34:39.632Z,0.80
2018-12-13T07:37:08.644Z,0.90
2018-12-13T07:39:37.636Z,0.90
2018-12-13T07:42:06.704Z,0.90
2018-12-13T07:44:34.930Z,0.90
2018-12-13T07:47:03.196Z,0.90
2018-12-13T07:49:32.170Z,0.90
2018-12-13T07:52:01.143Z,0.90
2018-12-13T07:54:29.401Z,0.90
2018-12-13T07:56:57.660Z,0.90
2018-12-13T07:59:25.891Z,0.90
2018-12-13T08:01:54.866Z,0.90
2018-12-13T08:04:23.120Z,0.90
2018-12-13T08:06:51.333Z,0.90
2018-12-13T08:09:19.606Z,0.90
2018-12-13T08:11:47.860Z,0.80
2018-12-13T08:14:16.127Z,0.90
2018-12-13T08:16:44.323Z,0.90
2018-12-13T08:19:12.535Z,0.90
2018-12-13T08:21:41.571Z,1.00
2018-12-13T08:24:09.765Z,0.90
2018-12-13T08:26:38.039Z,1.00
2018-12-13T08:29:06.279Z,1.10
2018-12-13T08:31:34.562Z,1.10
2018-12-13T08:34:02.746Z,1.10
2018-12-13T08:36:31.017Z,1.10
2018-12-13T08:38:59.235Z,1.20
2018-12-13T08:41:27.457Z,1.20
2018-12-13T08:43:55.713Z,1.30
2018-12-13T08:46:24.693Z,1.40
2018-12-13T08:48:53.681Z,1.40
2018-12-13T08:51:21.928Z,1.40
2018-12-13T08:53:50.175Z,1.40
2018-12-13T08:56:18.451Z,1.50
2018-12-13T08:58:46.662Z,1.50
2018-12-13T09:01:14.868Z,1.60
2018-12-13T09:03:43.094Z,1.60
2018-12-13T09:06:11.318Z,1.60
2018-12-13T09:08:39.579Z,1.60
2018-12-13T09:11:07.820Z,1.60
2018-12-13T09:13:36.035Z,1.60
2018-12-13T09:16:04.245Z,1.70
2018-12-13T09:18:32.522Z,1.70
2018-12-13T09:21:01.500Z,1.90
2018-12-13T09:23:35.768Z,1.90
2018-12-13T09:26:04.896Z,1.90
2018-12-13T09:28:33.104Z,1.90
2018-12-13T09:31:02.096Z,2.10
2018-12-13T09:33:31.196Z,2.10
2018-12-13T09:36:00.224Z,2.20
2018-12-13T09:38:28.424Z,2.20
2018-12-13T09:40:56.739Z,2.30
2018-12-13T09:43:24.986Z,2.30
2018-12-13T09:45:53.989Z,2.40
2018-12-13T09:48:22.250Z,2.30
2018-12-13T09:50:50.498Z,2.20
2018-12-13T09:53:18.757Z,2.30
2018-12-13T09:55:47.010Z,2.50
2018-12-13T09:58:16.040Z,2.60
2018-12-13T10:00:44.245Z,2.50
2018-12-13T10:03:12.465Z,2.70
2018-12-13T10:05:41.478Z,2.80
2018-12-13T10:08:09.683Z,2.70
2018-12-13T10:10:37.934Z,2.80
2018-12-13T10:13:06.198Z,3.00
2018-12-13T10:15:34.444Z,3.10
2018-12-13T10:18:02.711Z,3.10
2018-12-13T10:20:30.980Z,3.10
2018-12-13T10:22:59.250Z,3.00
2018-12-13T10:25:27.471Z,3.00
2018-12-13T10:27:56.445Z,2.90
2018-12-13T10:30:24.699Z,2.90
2018-12-13T10:32:52.979Z,3.00
2018-12-13T10:35:21.239Z,2.90
2018-12-13T10:37:49.482Z,3.00
2018-12-13T10:40:18.470Z,3.00
2018-12-13T10:42:47.486Z,3.10
2018-12-13T10:45:15.746Z,3.10
2018-12-13T10:47:44.762Z,3.00
2018-12-13T10:50:12.964Z,3.00
2018-12-13T10:52:42.075Z,3.20
2018-12-13T10:55:10.976Z,3.20
2018-12-13T10:57:39.204Z,3.30
2018-12-13T11:00:07.549Z,3.40
2018-12-13T11:05:39.193Z,3.70
2018-12-13T11:08:07.418Z,3.80
2018-12-13T11:10:35.642Z,3.90
2018-12-13T11:13:05.376Z,4.00
2018-12-13T11:15:33.611Z,4.00
2018-12-13T11:18:01.881Z,3.80
2018-12-13T11:20:30.114Z,3.90
2018-12-13T11:22:58.360Z,4.00
2018-12-13T11:25:27.330Z,4.00
2018-12-13T11:30:58.347Z,3.90
2018-12-13T11:33:26.582Z,3.90
2018-12-13T11:35:54.843Z,4.00
2018-12-13T11:38:23.091Z,3.90
2018-12-13T11:40:52.077Z,3.90
2018-12-13T11:43:21.091Z,3.90
2018-12-13T11:45:49.321Z,3.90
2018-12-13T11:48:17.525Z,3.90
2018-12-13T11:50:46.506Z,4.10
2018-12-13T11:53:15.517Z,4.10
2018-12-13T11:55:44.497Z,4.20
2018-12-13T11:58:13.478Z,3.90
2018-12-13T12:00:41.695Z,3.90
2018-12-13T12:03:09.941Z,3.90
2018-12-13T12:05:38.199Z,4.00
2018-12-13T12:08:06.421Z,4.10
2018-12-13T12:10:35.428Z,4.20
2018-12-13T12:13:03.647Z,4.20
2018-12-13T12:15:31.863Z,4.20
2018-12-13T12:18:00.108Z,4.20
2018-12-13T12:20:28.325Z,4.20
2018-12-13T12:22:56.538Z,4.20
2018-12-13T12:25:24.734Z,4.30
2018-12-13T12:27:52.998Z,4.40
2018-12-13T12:30:21.233Z,4.60
2018-12-13T12:32:49.491Z,4.70
2018-12-13T12:35:18.474Z,4.70
2018-12-13T12:37:47.462Z,4.60
2018-12-13T12:40:15.657Z,4.50
2018-12-13T12:42:43.946Z,4.70
2018-12-13T12:45:12.191Z,4.50
2018-12-13T12:47:40.455Z,4.50
2018-12-13T12:50:08.661Z,4.50
2018-12-13T12:52:36.875Z,4.30
2018-12-13T12:55:05.131Z,4.30
2018-12-13T12:57:33.335Z,4.10
2018-12-13T13:00:01.558Z,4.10
2018-12-13T13:02:30.575Z,3.80
2018-12-13T13:04:58.827Z,3.80
2018-12-13T13:07:27.051Z,3.80
2018-12-13T13:09:55.251Z,3.80
2018-12-13T13:12:23.514Z,3.70
2018-12-13T13:14:51.829Z,3.60
2018-12-13T13:17:20.020Z,3.60
2018-12-13T13:19:48.252Z,3.40
2018-12-13T13:22:16.456Z,3.50
2018-12-13T13:24:44.670Z,3.50
2018-12-13T13:27:12.875Z,3.60
2018-12-13T13:29:41.170Z,3.60
2018-12-13T13:32:09.422Z,3.60
2018-12-13T13:34:37.616Z,3.60
2018-12-13T13:37:05.882Z,3.60
2018-12-13T13:39:34.075Z,3.70
2018-12-13T13:42:02.341Z,3.70
2018-12-13T13:44:30.540Z,3.60
2018-12-13T13:46:59.526Z,3.60
2018-12-13T13:49:27.732Z,3.60
2018-12-13T13:51:55.966Z,3.60
2018-12-13T13:54:24.217Z,3.60
2018-12-13T13:56:52.431Z,3.50
2018-12-13T13:59:20.644Z,3.50
2018-12-13T14:01:49.203Z,3.40
2018-12-13T14:04:17.074Z,3.40
2018-12-13T14:06:46.095Z,3.30
2018-12-13T14:09:14.361Z,3.30
2018-12-13T14:11:43.393Z,3.30
2018-12-13T14:14:11.665Z,3.20
2018-12-13T14:16:39.921Z,3.20
2018-12-13T14:19:08.143Z,3.10
2018-12-13T14:21:38.214Z,3.20
2018-12-13T14:24:06.974Z,3.30
2018-12-13T14:26:35.001Z,3.30
2018-12-13T14:29:03.040Z,3.40
2018-12-13T14:31:31.820Z,3.40
2018-12-13T14:33:59.852Z,3.40
2018-12-13T14:36:27.873Z,3.30
2018-12-13T14:38:55.928Z,3.30
2018-12-13T14:41:23.898Z,3.30
2018-12-13T14:43:51.938Z,3.30
2018-12-13T14:46:19.974Z,3.20
2018-12-13T14:48:48.717Z,3.30
2018-12-13T14:51:16.697Z,3.20
2018-12-13T14:53:44.717Z,3.10
2018-12-13T14:56:12.744Z,3.00
2018-12-13T14:58:40.724Z,3.00
2018-12-13T15:01:09.533Z,2.90
2018-12-13T15:03:38.270Z,3.00
2018-12-13T15:06:06.309Z,3.00
2018-12-13T15:08:34.279Z,3.00
2018-12-13T15:11:02.321Z,2.90
2018-12-13T15:13:31.089Z,2.80
2018-12-13T15:15:59.104Z,2.80
2018-12-13T15:18:27.138Z,2.80
2018-12-13T15:20:55.125Z,2.70
2018-12-13T15:23:23.865Z,2.60
2018-12-13T15:25:51.906Z,2.50
2018-12-13T15:28:19.926Z,2.50
2018-12-13T15:30:47.972Z,2.40
2018-12-13T15:33:16.707Z,2.60
2018-12-13T15:35:45.530Z,2.60
2018-12-13T15:38:13.552Z,2.60
2018-12-13T15:40:41.582Z,2.70
2018-12-13T15:43:09.594Z,2.60
2018-12-13T15:45:37.580Z,2.70
2018-12-13T15:48:05.566Z,2.50
2018-12-13T15:50:34.316Z,2.70
2018-12-13T15:53:02.347Z,2.70
2018-12-13T15:55:30.359Z,2.80
2018-12-13T15:57:58.388Z,2.70
2018-12-13T16:00:26.370Z,2.70
2018-12-13T16:02:54.369Z,2.70
2018-12-13T16:05:22.602Z,2.70
2018-12-13T16:07:50.810Z,2.80
2018-12-13T16:10:19.063Z,2.80
2018-12-13T16:12:47.318Z,2.70
2018-12-13T16:15:15.562Z,2.70
2018-12-13T16:17:44.615Z,2.70
2018-12-13T16:20:12.813Z,2.60
2018-12-13T16:22:41.029Z,2.70
2018-12-13T16:25:09.286Z,2.70
2018-12-13T16:27:38.301Z,2.70
2018-12-13T16:30:06.572Z,2.70
2018-12-13T16:32:35.570Z,2.80
2018-12-13T16:35:04.546Z,2.80
2018-12-13T16:37:33.574Z,2.80
2018-12-13T16:40:01.778Z,2.80
2018-12-13T16:42:29.983Z,2.80
2018-12-13T16:44:59.023Z,2.80
2018-12-13T16:47:27.259Z,2.80
2018-12-13T16:49:55.530Z,2.80
2018-12-13T16:52:23.779Z,2.80
2018-12-13T16:54:52.033Z,2.70
2018-12-13T16:57:20.248Z,2.80
2018-12-13T16:59:48.472Z,2.80
2018-12-13T17:02:16.681Z,2.70
2018-12-13T17:04:44.890Z,2.70
2018-12-13T17:07:13.922Z,2.70
2018-12-13T17:09:42.140Z,2.70
2018-12-13T17:12:10.365Z,2.80
2018-12-13T17:14:38.606Z,2.80
2018-12-13T17:17:06.804Z,2.70
2018-12-13T17:19:35.016Z,2.80
2018-12-13T17:22:03.277Z,2.80
2018-12-13T17:24:31.477Z,2.90
2018-12-13T17:26:59.761Z,2.90
2018-12-13T17:29:27.987Z,2.90
2018-12-13T17:31:56.994Z,2.80
2018-12-13T17:34:25.192Z,2.80
2018-12-13T17:36:53.436Z,2.80
2018-12-13T17:39:22.403Z,2.80
2018-12-13T17:41:50.683Z,2.80
2018-12-13T17:44:18.912Z,2.80
2018-12-13T17:46:47.203Z,2.90
2018-12-13T17:49:15.439Z,2.90
2018-12-13T17:51:44.453Z,3.00
2018-12-13T17:54:12.714Z,3.00
2018-12-13T17:56:40.915Z,3.00
2018-12-13T17:59:09.180Z,2.90
2018-12-13T18:01:37.377Z,2.90
2018-12-13T18:04:05.610Z,2.80
2018-12-13T18:06:33.821Z,2.90
2018-12-13T18:09:02.045Z,2.90
2018-12-13T18:11:30.256Z,2.90
2018-12-13T18:13:58.521Z,2.90
2018-12-13T18:16:27.527Z,2.90
2018-12-13T18:18:56.517Z,2.90
2018-12-13T18:21:24.725Z,2.90
2018-12-13T18:23:52.931Z,2.90
2018-12-13T18:26:21.170Z,2.90
2018-12-13T18:28:50.154Z,2.90
2018-12-13T18:31:18.359Z,2.80
2018-12-13T18:33:46.578Z,2.80
2018-12-13T18:36:15.584Z,2.90
2018-12-13T18:38:44.615Z,2.80
2018-12-13T18:41:12.816Z,2.80
2018-12-13T18:43:41.040Z,2.90
2018-12-13T18:46:09.599Z,2.80
2018-12-13T18:48:38.606Z,2.90
2018-12-13T18:51:07.583Z,2.90
2018-12-13T18:53:36.575Z,2.90
2018-12-13T18:56:05.593Z,3.00
2018-12-13T18:58:34.555Z,3.00
2018-12-13T19:01:03.548Z,3.00
2018-12-13T19:03:32.559Z,3.00
2018-12-13T19:06:01.608Z,3.00
2018-12-13T19:08:29.833Z,3.00
2018-12-13T19:10:58.306Z,2.90
2018-12-13T19:13:26.541Z,3.00
2018-12-13T19:15:54.743Z,3.00
2018-12-13T19:18:22.962Z,2.90
2018-12-13T19:20:51.155Z,2.90
2018-12-13T19:23:19.431Z,3.00
2018-12-13T19:25:48.436Z,2.90
2018-12-13T19:28:16.634Z,2.90
2018-12-13T19:30:44.853Z,3.00
2018-12-13T19:33:13.111Z,3.00
2018-12-13T19:35:42.051Z,3.00
2018-12-13T19:38:10.270Z,2.90
2018-12-13T19:40:39.282Z,2.90
2018-12-13T19:43:07.542Z,2.80
2018-12-13T19:45:36.551Z,2.90
2018-12-13T19:48:05.582Z,3.00
2018-12-13T19:50:33.819Z,2.90
2018-12-13T19:53:02.840Z,2.90
2018-12-13T19:55:31.106Z,2.80
2018-12-13T19:57:59.330Z,2.90
2018-12-13T20:00:27.572Z,3.00
2018-12-13T20:02:55.813Z,3.00
2018-12-13T20:05:24.023Z,2.90
2018-12-13T20:07:52.235Z,2.90
2018-12-13T20:10:20.494Z,3.00
2018-12-13T20:12:48.689Z,3.00
2018-12-13T20:15:16.885Z,3.00
2018-12-13T20:17:45.913Z,3.00
2018-12-13T20:20:14.133Z,3.00
2018-12-13T20:22:42.347Z,3.00
2018-12-13T20:25:10.636Z,2.90
2018-12-13T20:27:40.261Z,2.90
2018-12-13T20:30:07.063Z,2.90
2018-12-13T20:32:35.364Z,3.00
2018-12-13T20:35:04.730Z,2.90
2018-12-13T20:37:32.607Z,2.90
2018-12-13T20:40:00.798Z,2.90
2018-12-13T20:42:29.831Z,2.90
2018-12-13T20:44:58.075Z,2.90
2018-12-13T20:47:27.190Z,3.00
2018-12-13T20:49:55.487Z,2.90
2018-12-13T20:52:23.791Z,3.00
2018-12-13T20:54:57.374Z,3.00
2018-12-13T20:57:26.692Z,3.00
2018-12-13T20:59:54.983Z,2.90
2018-12-13T21:02:23.225Z,2.90
2018-12-13T21:05:05.810Z,2.90
2018-12-13T21:07:34.018Z,2.90
2018-12-13T21:10:02.247Z,3.00
2018-12-13T21:12:30.463Z,3.00
2018-12-13T21:14:58.686Z,2.90
2018-12-13T21:17:27.713Z,3.00
2018-12-13T21:19:56.725Z,2.90
2018-12-13T21:22:24.969Z,2.90
2018-12-13T21:24:54.019Z,2.90
2018-12-13T21:27:22.253Z,2.80
2018-12-13T21:29:50.480Z,2.90
2018-12-13T21:32:18.700Z,2.80
2018-12-13T21:34:46.900Z,2.90
2018-12-13T21:37:15.180Z,2.90
2018-12-13T21:39:43.426Z,2.90
2018-12-13T21:42:12.441Z,2.90
2018-12-13T21:44:41.455Z,2.90
2018-12-13T21:47:09.734Z,2.80
2018-12-13T21:49:37.997Z,2.80
2018-12-13T21:52:06.266Z,2.80
2018-12-13T21:54:34.470Z,2.70
2018-12-13T21:57:02.750Z,2.80
2018-12-13T21:59:30.989Z,2.80
2018-12-13T22:01:59.234Z,2.70
2018-12-13T22:04:28.214Z,2.80
2018-12-13T22:06:56.481Z,2.80
2018-12-13T22:09:24.763Z,2.90
2018-12-13T22:11:52.914Z,2.80
2018-12-13T22:14:21.192Z,2.70
2018-12-13T22:16:49.414Z,2.80
2018-12-13T22:19:17.662Z,2.80
2018-12-13T22:21:45.902Z,2.90
2018-12-13T22:24:14.154Z,2.80
2018-12-13T22:26:43.208Z,2.80
2018-12-13T22:29:11.468Z,2.80
2018-12-13T22:31:39.671Z,2.80
2018-12-13T22:34:07.964Z,2.80
2018-12-13T22:36:36.145Z,2.80
2018-12-13T22:39:05.174Z,2.80
2018-12-13T22:41:33.370Z,2.80
2018-12-13T22:44:01.581Z,2.80
2018-12-13T22:46:29.789Z,2.60
2018-12-13T22:48:58.048Z,2.70
2018-12-13T22:51:26.314Z,2.70
2018-12-13T22:53:55.273Z,2.70
2018-12-13T22:56:23.576Z,2.70
2018-12-13T22:58:51.788Z,2.70
2018-12-13T23:01:20.959Z,2.70
2018-12-13T23:03:50.621Z,2.80
2018-12-13T23:06:18.861Z,2.80
2018-12-13T23:08:47.105Z,2.80
2018-12-13T23:11:15.357Z,2.90
2018-12-13T23:13:43.550Z,2.80
2018-12-13T23:16:11.823Z,2.70
2018-12-13T23:18:40.072Z,2.80
2018-12-13T23:21:08.358Z,2.80
2018-12-13T23:23:36.545Z,2.70
2018-12-13T23:26:04.804Z,2.80
2018-12-13T23:28:33.051Z,2.80
2018-12-13T23:31:01.425Z,2.80
2018-12-13T23:33:30.399Z,2.80
2018-12-13T23:35:59.430Z,2.80
2018-12-13T23:38:27.637Z,2.80
2018-12-13T23:40:55.891Z,2.70
2018-12-13T23:43:24.137Z,2.70
2018-12-13T23:45:53.103Z,2.60
2018-12-13T23:48:21.321Z,2.60
2018-12-13T23:50:49.569Z,2.60
2018-12-13T23:53:17.818Z,2.60
2018-12-13T23:55:46.058Z,2.60
2018-12-13T23:58:14.276Z,2.60
